sensor_id;sensor_type;location;lat;lon;timestamp;P1;durP1;ratioP1;P2;durP2;ratioP2
11807;SDS011;5961;42.640;23.380;2022-10-14T00:01:50;4.40;;;3.80;;
11807;SDS011;5961;42.640;23.380;2022-10-14T00:04:16;5.13;;;3.87;;
11807;SDS011;5961;42.640;23.380;2022-10-14T00:06:43;4.80;;;3.80;;
11807;SDS011;5961;42.640;23.380;2022-10-14T00:09:10;4.47;;;3.60;;
11807;SDS011;5961;42.640;23.380;2022-10-14T00:11:38;3.97;;;3.50;;
11807;SDS011;5961;42.640;23.380;2022-10-14T00:14:06;3.93;;;3.20;;
11807;SDS011;5961;42.640;23.380;2022-10-14T00:16:36;9.03;;;3.70;;
11807;SDS011;5961;42.640;23.380;2022-10-14T00:19:04;4.73;;;3.53;;
11807;SDS011;5961;42.640;23.380;2022-10-14T00:21:32;6.43;;;3.70;;
11807;SDS011;5961;42.640;23.380;2022-10-14T00:23:59;5.40;;;3.70;;
11807;SDS011;5961;42.640;23.380;2022-10-14T00:26:27;10.30;;;3.50;;
11807;SDS011;5961;42.640;23.380;2022-10-14T00:28:57;6.17;;;3.43;;
11807;SDS011;5961;42.640;23.380;2022-10-14T00:31:25;5.80;;;3.40;;
11807;SDS011;5961;42.640;23.380;2022-10-14T00:33:52;7.10;;;3.00;;
11807;SDS011;5961;42.640;23.380;2022-10-14T00:36:20;6.03;;;3.20;;
11807;SDS011;5961;42.640;23.380;2022-10-14T00:38:48;5.00;;;3.47;;
11807;SDS011;5961;42.640;23.380;2022-10-14T00:41:17;6.37;;;3.20;;
11807;SDS011;5961;42.640;23.380;2022-10-14T00:43:50;4.57;;;3.50;;
11807;SDS011;5961;42.640;23.380;2022-10-14T00:46:20;3.57;;;2.63;;
11807;SDS011;5961;42.640;23.380;2022-10-14T00:48:47;4.67;;;2.90;;
11807;SDS011;5961;42.640;23.380;2022-10-14T00:51:14;3.13;;;2.90;;
11807;SDS011;5961;42.640;23.380;2022-10-14T00:53:42;3.50;;;2.70;;
11807;SDS011;5961;42.640;23.380;2022-10-14T00:56:09;4.50;;;2.87;;
11807;SDS011;5961;42.640;23.380;2022-10-14T00:58:38;4.80;;;2.50;;
11807;SDS011;5961;42.640;23.380;2022-10-14T01:01:05;3.67;;;2.60;;
11807;SDS011;5961;42.640;23.380;2022-10-14T01:03:34;4.20;;;2.80;;
11807;SDS011;5961;42.640;23.380;2022-10-14T01:06:03;3.50;;;2.70;;
11807;SDS011;5961;42.640;23.380;2022-10-14T01:08:42;7.13;;;2.70;;
11807;SDS011;5961;42.640;23.380;2022-10-14T01:11:12;5.40;;;2.60;;
11807;SDS011;5961;42.640;23.380;2022-10-14T01:13:44;3.07;;;2.27;;
11807;SDS011;5961;42.640;23.380;2022-10-14T01:16:17;2.60;;;2.30;;
11807;SDS011;5961;42.640;23.380;2022-10-14T01:18:56;3.13;;;2.47;;
11807;SDS011;5961;42.640;23.380;2022-10-14T01:21:31;3.27;;;2.20;;
11807;SDS011;5961;42.640;23.380;2022-10-14T01:27:13;3.90;;;2.57;;
11807;SDS011;5961;42.640;23.380;2022-10-14T01:32:37;4.47;;;2.47;;
11807;SDS011;5961;42.640;23.380;2022-10-14T01:35:22;3.10;;;2.23;;
11807;SDS011;5961;42.640;23.380;2022-10-14T01:37:55;2.53;;;2.33;;
11807;SDS011;5961;42.640;23.380;2022-10-14T01:40:26;3.10;;;2.10;;
11807;SDS011;5961;42.640;23.380;2022-10-14T01:43:00;3.20;;;2.73;;
11807;SDS011;5961;42.640;23.380;2022-10-14T01:45:31;4.73;;;2.70;;
11807;SDS011;5961;42.640;23.380;2022-10-14T01:48:01;3.10;;;2.23;;
11807;SDS011;5961;42.640;23.380;2022-10-14T01:50:31;3.70;;;2.13;;
11807;SDS011;5961;42.640;23.380;2022-10-14T01:53:02;3.10;;;2.00;;
11807;SDS011;5961;42.640;23.380;2022-10-14T01:55:32;3.27;;;2.23;;
11807;SDS011;5961;42.640;23.380;2022-10-14T01:58:01;6.17;;;2.07;;
11807;SDS011;5961;42.640;23.380;2022-10-14T02:00:32;3.13;;;2.10;;
11807;SDS011;5961;42.640;23.380;2022-10-14T02:02:59;5.57;;;2.20;;
11807;SDS011;5961;42.640;23.380;2022-10-14T02:05:26;3.20;;;2.50;;
11807;SDS011;5961;42.640;23.380;2022-10-14T02:07:57;3.33;;;2.20;;
11807;SDS011;5961;42.640;23.380;2022-10-14T02:10:33;2.97;;;2.00;;
11807;SDS011;5961;42.640;23.380;2022-10-14T02:13:21;2.70;;;1.90;;
11807;SDS011;5961;42.640;23.380;2022-10-14T02:16:07;2.30;;;2.10;;
11807;SDS011;5961;42.640;23.380;2022-10-14T02:18:45;3.67;;;2.27;;
11807;SDS011;5961;42.640;23.380;2022-10-14T02:21:18;4.73;;;2.27;;
11807;SDS011;5961;42.640;23.380;2022-10-14T02:23:50;2.70;;;1.93;;
11807;SDS011;5961;42.640;23.380;2022-10-14T02:26:23;3.83;;;2.17;;
11807;SDS011;5961;42.640;23.380;2022-10-14T02:28:50;3.97;;;2.17;;
11807;SDS011;5961;42.640;23.380;2022-10-14T02:31:21;3.33;;;2.10;;
11807;SDS011;5961;42.640;23.380;2022-10-14T02:33:50;2.87;;;2.10;;
11807;SDS011;5961;42.640;23.380;2022-10-14T02:36:21;3.63;;;2.23;;
11807;SDS011;5961;42.640;23.380;2022-10-14T02:38:50;3.33;;;2.47;;
11807;SDS011;5961;42.640;23.380;2022-10-14T02:41:20;4.07;;;2.30;;
11807;SDS011;5961;42.640;23.380;2022-10-14T02:43:50;3.47;;;2.20;;
11807;SDS011;5961;42.640;23.380;2022-10-14T02:46:18;5.27;;;2.10;;
11807;SDS011;5961;42.640;23.380;2022-10-14T02:48:47;7.50;;;2.23;;
11807;SDS011;5961;42.640;23.380;2022-10-14T02:51:14;3.87;;;2.20;;
11807;SDS011;5961;42.640;23.380;2022-10-14T02:53:41;3.83;;;2.10;;
11807;SDS011;5961;42.640;23.380;2022-10-14T02:56:08;5.47;;;2.43;;
11807;SDS011;5961;42.640;23.380;2022-10-14T02:58:37;5.67;;;2.40;;
11807;SDS011;5961;42.640;23.380;2022-10-14T03:01:03;2.67;;;2.23;;
11807;SDS011;5961;42.640;23.380;2022-10-14T03:03:30;4.00;;;2.47;;
11807;SDS011;5961;42.640;23.380;2022-10-14T03:05:58;3.90;;;2.77;;
11807;SDS011;5961;42.640;23.380;2022-10-14T03:08:25;3.60;;;2.43;;
11807;SDS011;5961;42.640;23.380;2022-10-14T03:10:52;6.40;;;2.60;;
11807;SDS011;5961;42.640;23.380;2022-10-14T03:13:19;2.47;;;2.27;;
11807;SDS011;5961;42.640;23.380;2022-10-14T03:15:46;5.43;;;2.50;;
11807;SDS011;5961;42.640;23.380;2022-10-14T03:18:14;5.03;;;3.40;;
11807;SDS011;5961;42.640;23.380;2022-10-14T03:20:41;3.50;;;2.87;;
11807;SDS011;5961;42.640;23.380;2022-10-14T03:23:10;3.90;;;2.30;;
11807;SDS011;5961;42.640;23.380;2022-10-14T03:25:37;3.57;;;2.30;;
11807;SDS011;5961;42.640;23.380;2022-10-14T03:28:04;2.57;;;2.20;;
11807;SDS011;5961;42.640;23.380;2022-10-14T03:30:31;3.73;;;2.60;;
11807;SDS011;5961;42.640;23.380;2022-10-14T03:32:58;5.93;;;2.73;;
11807;SDS011;5961;42.640;23.380;2022-10-14T03:35:24;3.67;;;3.00;;
11807;SDS011;5961;42.640;23.380;2022-10-14T03:37:51;3.23;;;3.00;;
11807;SDS011;5961;42.640;23.380;2022-10-14T03:40:20;6.53;;;3.07;;
11807;SDS011;5961;42.640;23.380;2022-10-14T03:42:47;3.50;;;3.20;;
11807;SDS011;5961;42.640;23.380;2022-10-14T03:45:14;4.57;;;3.53;;
11807;SDS011;5961;42.640;23.380;2022-10-14T03:47:40;5.10;;;3.43;;
11807;SDS011;5961;42.640;23.380;2022-10-14T03:50:07;3.47;;;3.20;;
11807;SDS011;5961;42.640;23.380;2022-10-14T03:52:34;3.80;;;3.13;;
11807;SDS011;5961;42.640;23.380;2022-10-14T03:55:01;3.57;;;3.23;;
11807;SDS011;5961;42.640;23.380;2022-10-14T03:57:29;5.57;;;3.80;;
11807;SDS011;5961;42.640;23.380;2022-10-14T03:59:56;6.73;;;4.00;;
11807;SDS011;5961;42.640;23.380;2022-10-14T04:02:23;3.43;;;3.13;;
11807;SDS011;5961;42.640;23.380;2022-10-14T04:04:49;3.60;;;3.30;;
11807;SDS011;5961;42.640;23.380;2022-10-14T04:07:16;4.03;;;3.63;;
11807;SDS011;5961;42.640;23.380;2022-10-14T04:09:43;3.77;;;3.37;;
11807;SDS011;5961;42.640;23.380;2022-10-14T04:12:10;4.27;;;3.67;;
11807;SDS011;5961;42.640;23.380;2022-10-14T04:14:38;5.90;;;4.67;;
11807;SDS011;5961;42.640;23.380;2022-10-14T04:17:05;6.20;;;3.87;;
11807;SDS011;5961;42.640;23.380;2022-10-14T04:19:32;5.20;;;4.40;;
11807;SDS011;5961;42.640;23.380;2022-10-14T04:21:58;6.17;;;4.00;;
11807;SDS011;5961;42.640;23.380;2022-10-14T04:24:25;6.83;;;3.73;;
11807;SDS011;5961;42.640;23.380;2022-10-14T04:26:52;5.97;;;3.80;;
11807;SDS011;5961;42.640;23.380;2022-10-14T04:29:19;6.63;;;3.50;;
11807;SDS011;5961;42.640;23.380;2022-10-14T04:31:47;3.87;;;3.50;;
11807;SDS011;5961;42.640;23.380;2022-10-14T04:34:14;5.03;;;4.00;;
11807;SDS011;5961;42.640;23.380;2022-10-14T04:36:40;5.87;;;4.70;;
11807;SDS011;5961;42.640;23.380;2022-10-14T04:39:07;4.53;;;3.70;;
11807;SDS011;5961;42.640;23.380;2022-10-14T04:41:35;4.10;;;3.70;;
11807;SDS011;5961;42.640;23.380;2022-10-14T04:44:02;4.10;;;3.70;;
11807;SDS011;5961;42.640;23.380;2022-10-14T04:46:28;5.83;;;3.50;;
11807;SDS011;5961;42.640;23.380;2022-10-14T04:48:56;4.13;;;3.40;;
11807;SDS011;5961;42.640;23.380;2022-10-14T04:51:23;3.70;;;3.40;;
11807;SDS011;5961;42.640;23.380;2022-10-14T04:53:50;3.67;;;3.30;;
11807;SDS011;5961;42.640;23.380;2022-10-14T04:56:17;3.70;;;3.40;;
11807;SDS011;5961;42.640;23.380;2022-10-14T04:58:43;4.33;;;3.60;;
11807;SDS011;5961;42.640;23.380;2022-10-14T05:01:10;5.63;;;3.70;;
11807;SDS011;5961;42.640;23.380;2022-10-14T05:03:37;5.43;;;3.37;;
11807;SDS011;5961;42.640;23.380;2022-10-14T05:06:05;3.97;;;3.57;;
11807;SDS011;5961;42.640;23.380;2022-10-14T05:08:32;4.03;;;3.40;;
11807;SDS011;5961;42.640;23.380;2022-10-14T05:10:58;5.03;;;3.40;;
11807;SDS011;5961;42.640;23.380;2022-10-14T05:13:26;5.03;;;3.83;;
11807;SDS011;5961;42.640;23.380;2022-10-14T05:15:53;4.07;;;3.67;;
11807;SDS011;5961;42.640;23.380;2022-10-14T05:18:20;5.60;;;4.10;;
11807;SDS011;5961;42.640;23.380;2022-10-14T05:20:47;6.30;;;4.97;;
11807;SDS011;5961;42.640;23.380;2022-10-14T05:23:15;4.90;;;4.50;;
11807;SDS011;5961;42.640;23.380;2022-10-14T05:25:42;4.70;;;4.23;;
11807;SDS011;5961;42.640;23.380;2022-10-14T05:28:08;4.70;;;4.03;;
11807;SDS011;5961;42.640;23.380;2022-10-14T05:30:35;4.40;;;4.00;;
11807;SDS011;5961;42.640;23.380;2022-10-14T05:33:02;4.47;;;4.17;;
11807;SDS011;5961;42.640;23.380;2022-10-14T05:35:28;4.50;;;4.10;;
11807;SDS011;5961;42.640;23.380;2022-10-14T05:37:55;6.13;;;4.30;;
11807;SDS011;5961;42.640;23.380;2022-10-14T05:40:24;4.50;;;4.10;;
11807;SDS011;5961;42.640;23.380;2022-10-14T05:42:50;5.17;;;3.97;;
11807;SDS011;5961;42.640;23.380;2022-10-14T05:45:17;5.10;;;4.60;;
11807;SDS011;5961;42.640;23.380;2022-10-14T05:47:44;5.10;;;4.50;;
11807;SDS011;5961;42.640;23.380;2022-10-14T05:50:11;5.07;;;4.43;;
11807;SDS011;5961;42.640;23.380;2022-10-14T05:52:39;5.43;;;4.57;;
11807;SDS011;5961;42.640;23.380;2022-10-14T05:55:06;5.40;;;4.40;;
11807;SDS011;5961;42.640;23.380;2022-10-14T05:57:35;5.37;;;4.80;;
11807;SDS011;5961;42.640;23.380;2022-10-14T06:00:03;9.67;;;5.30;;
11807;SDS011;5961;42.640;23.380;2022-10-14T06:02:31;6.20;;;5.60;;
11807;SDS011;5961;42.640;23.380;2022-10-14T06:04:58;7.33;;;5.70;;
11807;SDS011;5961;42.640;23.380;2022-10-14T06:07:24;6.97;;;6.27;;
11807;SDS011;5961;42.640;23.380;2022-10-14T06:09:51;7.43;;;6.23;;
11807;SDS011;5961;42.640;23.380;2022-10-14T06:12:18;6.47;;;5.87;;
11807;SDS011;5961;42.640;23.380;2022-10-14T06:14:46;8.40;;;6.03;;
11807;SDS011;5961;42.640;23.380;2022-10-14T06:17:12;5.17;;;4.57;;
11807;SDS011;5961;42.640;23.380;2022-10-14T06:19:39;9.43;;;6.43;;
11807;SDS011;5961;42.640;23.380;2022-10-14T06:22:06;8.87;;;5.37;;
11807;SDS011;5961;42.640;23.380;2022-10-14T06:24:33;6.97;;;5.03;;
11807;SDS011;5961;42.640;23.380;2022-10-14T06:26:59;6.93;;;4.70;;
11807;SDS011;5961;42.640;23.380;2022-10-14T06:29:26;9.07;;;6.40;;
11807;SDS011;5961;42.640;23.380;2022-10-14T06:31:57;7.13;;;4.30;;
11807;SDS011;5961;42.640;23.380;2022-10-14T06:34:24;7.50;;;4.13;;
11807;SDS011;5961;42.640;23.380;2022-10-14T06:36:51;7.30;;;4.37;;
11807;SDS011;5961;42.640;23.380;2022-10-14T06:39:18;5.53;;;5.00;;
11807;SDS011;5961;42.640;23.380;2022-10-14T06:41:44;9.53;;;5.63;;
11807;SDS011;5961;42.640;23.380;2022-10-14T06:44:11;4.27;;;3.87;;
11807;SDS011;5961;42.640;23.380;2022-10-14T06:46:39;8.90;;;4.87;;
11807;SDS011;5961;42.640;23.380;2022-10-14T06:49:08;7.70;;;4.07;;
11807;SDS011;5961;42.640;23.380;2022-10-14T06:51:34;5.97;;;3.60;;
11807;SDS011;5961;42.640;23.380;2022-10-14T06:54:02;10.53;;;5.40;;
11807;SDS011;5961;42.640;23.380;2022-10-14T06:56:29;7.37;;;4.97;;
11807;SDS011;5961;42.640;23.380;2022-10-14T06:58:58;9.50;;;5.20;;
11807;SDS011;5961;42.640;23.380;2022-10-14T07:01:25;5.60;;;4.90;;
11807;SDS011;5961;42.640;23.380;2022-10-14T07:03:52;5.03;;;4.50;;
11807;SDS011;5961;42.640;23.380;2022-10-14T07:06:20;6.17;;;4.73;;
11807;SDS011;5961;42.640;23.380;2022-10-14T07:08:47;5.43;;;4.67;;
11807;SDS011;5961;42.640;23.380;2022-10-14T07:11:14;6.43;;;4.67;;
11807;SDS011;5961;42.640;23.380;2022-10-14T07:13:40;6.30;;;4.40;;
11807;SDS011;5961;42.640;23.380;2022-10-14T07:16:12;4.90;;;4.50;;
11807;SDS011;5961;42.640;23.380;2022-10-14T07:18:38;6.50;;;4.57;;
11807;SDS011;5961;42.640;23.380;2022-10-14T07:21:05;7.37;;;4.97;;
11807;SDS011;5961;42.640;23.380;2022-10-14T07:23:34;7.13;;;5.40;;
11807;SDS011;5961;42.640;23.380;2022-10-14T07:26:01;6.47;;;4.70;;
11807;SDS011;5961;42.640;23.380;2022-10-14T07:28:28;5.63;;;4.60;;
11807;SDS011;5961;42.640;23.380;2022-10-14T07:30:55;5.47;;;4.97;;
11807;SDS011;5961;42.640;23.380;2022-10-14T07:33:26;6.93;;;6.00;;
11807;SDS011;5961;42.640;23.380;2022-10-14T07:35:53;8.67;;;6.93;;
11807;SDS011;5961;42.640;23.380;2022-10-14T07:38:20;13.27;;;7.37;;
11807;SDS011;5961;42.640;23.380;2022-10-14T07:40:55;10.63;;;6.13;;
11807;SDS011;5961;42.640;23.380;2022-10-14T07:43:23;9.43;;;6.30;;
11807;SDS011;5961;42.640;23.380;2022-10-14T07:45:50;10.13;;;6.67;;
11807;SDS011;5961;42.640;23.380;2022-10-14T07:48:16;6.67;;;5.97;;
11807;SDS011;5961;42.640;23.380;2022-10-14T07:50:47;9.60;;;8.17;;
11807;SDS011;5961;42.640;23.380;2022-10-14T07:53:15;6.57;;;5.90;;
11807;SDS011;5961;42.640;23.380;2022-10-14T07:55:43;10.43;;;7.33;;
11807;SDS011;5961;42.640;23.380;2022-10-14T07:58:17;7.20;;;5.80;;
11807;SDS011;5961;42.640;23.380;2022-10-14T08:00:45;12.37;;;7.10;;
11807;SDS011;5961;42.640;23.380;2022-10-14T08:03:12;7.63;;;6.80;;
11807;SDS011;5961;42.640;23.380;2022-10-14T08:05:38;8.73;;;5.80;;
11807;SDS011;5961;42.640;23.380;2022-10-14T08:08:05;5.70;;;5.20;;
11807;SDS011;5961;42.640;23.380;2022-10-14T08:10:32;8.93;;;6.97;;
11807;SDS011;5961;42.640;23.380;2022-10-14T08:13:00;7.40;;;5.80;;
11807;SDS011;5961;42.640;23.380;2022-10-14T08:15:31;8.53;;;5.80;;
11807;SDS011;5961;42.640;23.380;2022-10-14T08:17:58;8.50;;;5.87;;
11807;SDS011;5961;42.640;23.380;2022-10-14T08:20:25;6.10;;;5.33;;
11807;SDS011;5961;42.640;23.380;2022-10-14T08:22:52;7.03;;;4.97;;
11807;SDS011;5961;42.640;23.380;2022-10-14T08:25:20;7.50;;;5.70;;
11807;SDS011;5961;42.640;23.380;2022-10-14T08:27:47;8.63;;;6.13;;
11807;SDS011;5961;42.640;23.380;2022-10-14T08:30:15;7.47;;;4.67;;
11807;SDS011;5961;42.640;23.380;2022-10-14T08:32:43;6.37;;;4.70;;
11807;SDS011;5961;42.640;23.380;2022-10-14T08:35:10;9.60;;;5.57;;
11807;SDS011;5961;42.640;23.380;2022-10-14T08:37:37;6.90;;;4.53;;
11807;SDS011;5961;42.640;23.380;2022-10-14T08:40:04;7.13;;;4.63;;
11807;SDS011;5961;42.640;23.380;2022-10-14T08:42:34;4.10;;;3.70;;
11807;SDS011;5961;42.640;23.380;2022-10-14T08:45:09;6.13;;;3.80;;
11807;SDS011;5961;42.640;23.380;2022-10-14T08:47:41;4.53;;;4.00;;
11807;SDS011;5961;42.640;23.380;2022-10-14T08:50:18;6.13;;;4.90;;
11807;SDS011;5961;42.640;23.380;2022-10-14T08:52:49;7.90;;;5.50;;
11807;SDS011;5961;42.640;23.380;2022-10-14T08:55:22;6.13;;;5.53;;
11807;SDS011;5961;42.640;23.380;2022-10-14T08:57:56;14.03;;;8.23;;
11807;SDS011;5961;42.640;23.380;2022-10-14T09:00:26;11.03;;;6.30;;
11807;SDS011;5961;42.640;23.380;2022-10-14T09:02:58;10.10;;;7.80;;
11807;SDS011;5961;42.640;23.380;2022-10-14T09:05:36;10.90;;;7.73;;
11807;SDS011;5961;42.640;23.380;2022-10-14T09:08:05;7.50;;;6.10;;
11807;SDS011;5961;42.640;23.380;2022-10-14T09:10:36;7.67;;;4.63;;
11807;SDS011;5961;42.640;23.380;2022-10-14T09:13:08;4.37;;;3.97;;
11807;SDS011;5961;42.640;23.380;2022-10-14T09:15:40;5.13;;;3.77;;
11807;SDS011;5961;42.640;23.380;2022-10-14T09:18:14;7.07;;;3.20;;
11807;SDS011;5961;42.640;23.380;2022-10-14T09:20:48;3.87;;;3.00;;
11807;SDS011;5961;42.640;23.380;2022-10-14T09:23:16;9.53;;;3.73;;
11807;SDS011;5961;42.640;23.380;2022-10-14T09:25:48;3.80;;;3.20;;
11807;SDS011;5961;42.640;23.380;2022-10-14T09:28:21;5.93;;;3.40;;
11807;SDS011;5961;42.640;23.380;2022-10-14T09:30:54;3.70;;;3.13;;
11807;SDS011;5961;42.640;23.380;2022-10-14T09:33:23;4.20;;;3.17;;
11807;SDS011;5961;42.640;23.380;2022-10-14T09:35:53;7.87;;;3.30;;
11807;SDS011;5961;42.640;23.380;2022-10-14T09:38:22;3.90;;;3.13;;
11807;SDS011;5961;42.640;23.380;2022-10-14T09:40:49;3.50;;;3.07;;
11807;SDS011;5961;42.640;23.380;2022-10-14T09:43:21;5.03;;;3.40;;
11807;SDS011;5961;42.640;23.380;2022-10-14T09:45:50;9.73;;;3.60;;
11807;SDS011;5961;42.640;23.380;2022-10-14T09:48:26;12.10;;;3.70;;
11807;SDS011;5961;42.640;23.380;2022-10-14T09:50:57;3.40;;;3.10;;
11807;SDS011;5961;42.640;23.380;2022-10-14T09:53:26;7.57;;;4.10;;
11807;SDS011;5961;42.640;23.380;2022-10-14T09:55:56;5.73;;;4.23;;
11807;SDS011;5961;42.640;23.380;2022-10-14T09:58:28;8.27;;;5.30;;
11807;SDS011;5961;42.640;23.380;2022-10-14T10:00:58;3.93;;;3.63;;
11807;SDS011;5961;42.640;23.380;2022-10-14T10:03:27;7.63;;;4.07;;
11807;SDS011;5961;42.640;23.380;2022-10-14T10:05:58;5.00;;;4.43;;
11807;SDS011;5961;42.640;23.380;2022-10-14T10:08:30;7.50;;;4.90;;
11807;SDS011;5961;42.640;23.380;2022-10-14T10:10:59;5.83;;;4.90;;
11807;SDS011;5961;42.640;23.380;2022-10-14T10:13:32;5.00;;;3.37;;
11807;SDS011;5961;42.640;23.380;2022-10-14T10:16:03;7.37;;;3.93;;
11807;SDS011;5961;42.640;23.380;2022-10-14T10:18:32;3.77;;;3.40;;
11807;SDS011;5961;42.640;23.380;2022-10-14T10:21:00;6.23;;;3.43;;
11807;SDS011;5961;42.640;23.380;2022-10-14T10:23:32;5.57;;;3.60;;
11807;SDS011;5961;42.640;23.380;2022-10-14T10:26:13;4.13;;;3.10;;
11807;SDS011;5961;42.640;23.380;2022-10-14T10:28:46;5.27;;;2.63;;
11807;SDS011;5961;42.640;23.380;2022-10-14T10:31:19;6.83;;;4.60;;
11807;SDS011;5961;42.640;23.380;2022-10-14T10:33:56;5.80;;;4.70;;
11807;SDS011;5961;42.640;23.380;2022-10-14T10:36:32;6.43;;;5.30;;
11807;SDS011;5961;42.640;23.380;2022-10-14T10:39:05;4.73;;;3.97;;
11807;SDS011;5961;42.640;23.380;2022-10-14T10:41:45;4.67;;;3.03;;
11807;SDS011;5961;42.640;23.380;2022-10-14T10:44:29;3.30;;;2.97;;
11807;SDS011;5961;42.640;23.380;2022-10-14T10:47:13;8.50;;;4.23;;
11807;SDS011;5961;42.640;23.380;2022-10-14T10:50:02;7.83;;;4.53;;
11807;SDS011;5961;42.640;23.380;2022-10-14T10:52:44;7.40;;;3.20;;
11807;SDS011;5961;42.640;23.380;2022-10-14T10:55:22;3.23;;;2.63;;
11807;SDS011;5961;42.640;23.380;2022-10-14T10:57:58;4.97;;;3.07;;
11807;SDS011;5961;42.640;23.380;2022-10-14T11:00:31;3.67;;;3.10;;
11807;SDS011;5961;42.640;23.380;2022-10-14T11:03:09;4.67;;;2.40;;
11807;SDS011;5961;42.640;23.380;2022-10-14T11:05:54;5.90;;;2.03;;
11807;SDS011;5961;42.640;23.380;2022-10-14T11:08:30;3.03;;;1.90;;
11807;SDS011;5961;42.640;23.380;2022-10-14T11:11:27;4.30;;;1.90;;
11807;SDS011;5961;42.640;23.380;2022-10-14T11:14:24;4.47;;;1.90;;
11807;SDS011;5961;42.640;23.380;2022-10-14T11:16:59;6.23;;;2.53;;
11807;SDS011;5961;42.640;23.380;2022-10-14T11:19:32;4.83;;;3.40;;
11807;SDS011;5961;42.640;23.380;2022-10-14T11:22:10;4.27;;;3.67;;
11807;SDS011;5961;42.640;23.380;2022-10-14T11:24:48;4.97;;;2.50;;
11807;SDS011;5961;42.640;23.380;2022-10-14T11:27:25;5.40;;;3.60;;
11807;SDS011;5961;42.640;23.380;2022-10-14T11:30:03;7.40;;;4.03;;
11807;SDS011;5961;42.640;23.380;2022-10-14T11:32:42;5.70;;;2.77;;
11807;SDS011;5961;42.640;23.380;2022-10-14T11:35:22;4.10;;;2.63;;
11807;SDS011;5961;42.640;23.380;2022-10-14T11:38:03;4.10;;;2.30;;
11807;SDS011;5961;42.640;23.380;2022-10-14T11:40:42;4.83;;;2.37;;
11807;SDS011;5961;42.640;23.380;2022-10-14T11:43:16;1.47;;;1.33;;
11807;SDS011;5961;42.640;23.380;2022-10-14T11:45:52;4.97;;;3.10;;
11807;SDS011;5961;42.640;23.380;2022-10-14T11:48:26;3.27;;;2.40;;
11807;SDS011;5961;42.640;23.380;2022-10-14T11:50:59;3.83;;;2.23;;
11807;SDS011;5961;42.640;23.380;2022-10-14T11:53:37;6.03;;;2.10;;
11807;SDS011;5961;42.640;23.380;2022-10-14T11:56:11;3.67;;;2.40;;
11807;SDS011;5961;42.640;23.380;2022-10-14T11:58:53;2.43;;;2.00;;
11807;SDS011;5961;42.640;23.380;2022-10-14T12:01:25;3.17;;;2.57;;
11807;SDS011;5961;42.640;23.380;2022-10-14T12:03:56;4.10;;;2.37;;
11807;SDS011;5961;42.640;23.380;2022-10-14T12:06:31;2.17;;;1.97;;
11807;SDS011;5961;42.640;23.380;2022-10-14T12:09:05;2.47;;;2.20;;
11807;SDS011;5961;42.640;23.380;2022-10-14T12:11:41;2.60;;;2.30;;
11807;SDS011;5961;42.640;23.380;2022-10-14T12:14:12;3.10;;;2.40;;
11807;SDS011;5961;42.640;23.380;2022-10-14T12:16:45;3.57;;;1.93;;
11807;SDS011;5961;42.640;23.380;2022-10-14T12:19:14;4.17;;;1.83;;
11807;SDS011;5961;42.640;23.380;2022-10-14T12:21:49;3.80;;;2.10;;
11807;SDS011;5961;42.640;23.380;2022-10-14T12:24:21;2.07;;;1.70;;
11807;SDS011;5961;42.640;23.380;2022-10-14T12:26:51;3.23;;;2.10;;
11807;SDS011;5961;42.640;23.380;2022-10-14T12:29:20;3.57;;;2.10;;
11807;SDS011;5961;42.640;23.380;2022-10-14T12:31:50;2.90;;;1.87;;
11807;SDS011;5961;42.640;23.380;2022-10-14T12:34:32;3.33;;;1.40;;
11807;SDS011;5961;42.640;23.380;2022-10-14T12:40:21;2.73;;;1.73;;
11807;SDS011;5961;42.640;23.380;2022-10-14T12:42:54;3.33;;;1.63;;
11807;SDS011;5961;42.640;23.380;2022-10-14T12:45:25;2.73;;;1.80;;
11807;SDS011;5961;42.640;23.380;2022-10-14T12:48:04;1.73;;;1.63;;
11807;SDS011;5961;42.640;23.380;2022-10-14T12:50:37;3.50;;;2.00;;
11807;SDS011;5961;42.640;23.380;2022-10-14T12:53:06;3.23;;;1.67;;
11807;SDS011;5961;42.640;23.380;2022-10-14T12:55:49;3.97;;;1.63;;
11807;SDS011;5961;42.640;23.380;2022-10-14T12:58:21;1.60;;;1.50;;
11807;SDS011;5961;42.640;23.380;2022-10-14T13:00:52;1.50;;;1.30;;
11807;SDS011;5961;42.640;23.380;2022-10-14T13:03:22;1.47;;;1.37;;
11807;SDS011;5961;42.640;23.380;2022-10-14T13:05:52;1.53;;;1.43;;
11807;SDS011;5961;42.640;23.380;2022-10-14T13:08:38;3.10;;;1.60;;
11807;SDS011;5961;42.640;23.380;2022-10-14T13:11:10;2.87;;;1.40;;
11807;SDS011;5961;42.640;23.380;2022-10-14T13:13:56;1.73;;;1.60;;
11807;SDS011;5961;42.640;23.380;2022-10-14T13:19:42;1.60;;;1.20;;
11807;SDS011;5961;42.640;23.380;2022-10-14T13:25:14;3.27;;;1.30;;
11807;SDS011;5961;42.640;23.380;2022-10-14T13:27:56;1.70;;;1.40;;
11807;SDS011;5961;42.640;23.380;2022-10-14T13:30:52;3.97;;;1.50;;
11807;SDS011;5961;42.640;23.380;2022-10-14T13:33:25;3.60;;;1.50;;
11807;SDS011;5961;42.640;23.380;2022-10-14T13:36:02;2.00;;;1.60;;
11807;SDS011;5961;42.640;23.380;2022-10-14T13:38:37;2.93;;;1.73;;
11807;SDS011;5961;42.640;23.380;2022-10-14T13:41:09;2.00;;;1.50;;
11807;SDS011;5961;42.640;23.380;2022-10-14T13:43:43;2.23;;;1.30;;
11807;SDS011;5961;42.640;23.380;2022-10-14T13:46:11;3.47;;;2.20;;
11807;SDS011;5961;42.640;23.380;2022-10-14T13:48:42;7.47;;;3.83;;
11807;SDS011;5961;42.640;23.380;2022-10-14T13:51:20;19.00;;;7.93;;
11807;SDS011;5961;42.640;23.380;2022-10-14T13:53:52;43.70;;;18.83;;
11807;SDS011;5961;42.640;23.380;2022-10-14T13:56:20;38.63;;;15.60;;
11807;SDS011;5961;42.640;23.380;2022-10-14T13:58:52;20.27;;;9.07;;
11807;SDS011;5961;42.640;23.380;2022-10-14T14:01:20;56.10;;;20.27;;
11807;SDS011;5961;42.640;23.380;2022-10-14T14:03:50;15.43;;;8.40;;
11807;SDS011;5961;42.640;23.380;2022-10-14T14:06:19;5.80;;;3.23;;
11807;SDS011;5961;42.640;23.380;2022-10-14T14:08:48;2.67;;;2.40;;
11807;SDS011;5961;42.640;23.380;2022-10-14T14:11:17;2.90;;;2.07;;
11807;SDS011;5961;42.640;23.380;2022-10-14T14:13:48;1.93;;;1.73;;
11807;SDS011;5961;42.640;23.380;2022-10-14T14:16:21;3.13;;;1.63;;
11807;SDS011;5961;42.640;23.380;2022-10-14T14:18:50;3.70;;;2.40;;
11807;SDS011;5961;42.640;23.380;2022-10-14T14:21:19;3.63;;;2.00;;
11807;SDS011;5961;42.640;23.380;2022-10-14T14:23:47;5.53;;;3.27;;
11807;SDS011;5961;42.640;23.380;2022-10-14T14:26:15;2.77;;;2.33;;
11807;SDS011;5961;42.640;23.380;2022-10-14T14:28:43;3.20;;;2.47;;
11807;SDS011;5961;42.640;23.380;2022-10-14T14:31:14;8.60;;;2.03;;
11807;SDS011;5961;42.640;23.380;2022-10-14T14:33:43;5.57;;;2.47;;
11807;SDS011;5961;42.640;23.380;2022-10-14T14:36:12;11.00;;;4.13;;
11807;SDS011;5961;42.640;23.380;2022-10-14T14:38:45;7.70;;;2.93;;
11807;SDS011;5961;42.640;23.380;2022-10-14T14:41:19;7.23;;;2.80;;
11807;SDS011;5961;42.640;23.380;2022-10-14T14:43:48;4.23;;;2.37;;
11807;SDS011;5961;42.640;23.380;2022-10-14T14:46:19;4.50;;;3.17;;
11807;SDS011;5961;42.640;23.380;2022-10-14T14:48:50;5.37;;;3.10;;
11807;SDS011;5961;42.640;23.380;2022-10-14T14:51:18;7.03;;;2.60;;
11807;SDS011;5961;42.640;23.380;2022-10-14T14:53:46;10.23;;;6.17;;
11807;SDS011;5961;42.640;23.380;2022-10-14T14:56:17;12.73;;;7.03;;
11807;SDS011;5961;42.640;23.380;2022-10-14T14:58:48;6.50;;;4.80;;
11807;SDS011;5961;42.640;23.380;2022-10-14T15:01:20;7.40;;;5.13;;
11807;SDS011;5961;42.640;23.380;2022-10-14T15:03:50;5.43;;;3.90;;
11807;SDS011;5961;42.640;23.380;2022-10-14T15:06:20;4.53;;;2.90;;
11807;SDS011;5961;42.640;23.380;2022-10-14T15:08:48;6.10;;;3.03;;
11807;SDS011;5961;42.640;23.380;2022-10-14T15:11:17;12.50;;;3.77;;
11807;SDS011;5961;42.640;23.380;2022-10-14T15:13:47;8.90;;;3.57;;
11807;SDS011;5961;42.640;23.380;2022-10-14T15:16:37;7.60;;;4.37;;
11807;SDS011;5961;42.640;23.380;2022-10-14T15:19:26;13.37;;;8.87;;
11807;SDS011;5961;42.640;23.380;2022-10-14T15:24:58;8.13;;;4.97;;